Terminal Aerodrome Forecast
Issued by NWS

Home | Current Version | Previous Version | Graphics & Text | Print | Product List | Glossary On
Versions: 1 2 3 4 5 6 7 8 9 10 11 12 13 14 15 16 17 18
680
FTUS43 KICT 271743
TAFSLN
TAF
KSLN 271743Z 2718/2818 36007KT P6SM OVC013
     FM272100 01007KT P6SM OVC022
     FM272300 05004KT P6SM BKN028
     FM280300 12005KT P6SM SCT015 BKN250=

USA.gov is the U.S. government's official web portal to all federal, state and local government web resources and services.